Time;durP1;ratioP1;P1;durP2;ratioP2;P2;SDS_P1;SDS_P2;PMS_P1;PMS_P2;Temp;Humidity;BMP_temperature;BMP_pressure;BME280_temperature;BME280_humidity;BME280_pressure;Samples;Min_cycle;Max_cycle;Signal;HPM_P1;HPM_P2
2023/02/18 00:09:45;;;;;;;2.00;0.70;;;;;;;5.82;85.72;98688.27;450170;1249;141422;-66
2023/02/18 00:19:51;;;;;;;2.90;1.90;;;;;;;5.69;85.20;98712.27;447302;1252;141346;-67
2023/02/18 00:29:57;;;;;;;1.70;0.90;;;;;;;5.62;85.58;98726.88;451076;1250;143104;-68
2023/02/18 00:40:03;;;;;;;1.90;1.20;;;;;;;5.72;85.73;98730.29;450259;1251;143775;-67
2023/02/18 00:50:11;;;;;;;3.60;1.20;;;;;;;5.75;84.91;98747.01;435577;1252;142550;-67
2023/02/18 01:00:18;;;;;;;2.20;0.60;;;;;;;5.59;84.80;98754.33;450996;1250;142090;-67
2023/02/18 01:10:24;;;;;;;3.10;1.00;;;;;;;5.60;83.48;98744.92;449904;1250;145387;-67
2023/02/18 01:20:30;;;;;;;10.30;2.20;;;;;;;5.42;84.43;98757.71;436222;1252;143161;-67
2023/02/18 01:30:36;;;;;;;2.80;1.20;;;;;;;5.01;85.07;98756.09;437429;1252;142037;-68
2023/02/18 01:40:50;;;;;;;7.10;1.40;;;;;;;4.79;84.67;98753.33;442291;1250;141485;-67
2023/02/18 01:51:00;;;;;;;3.50;1.70;;;;;;;4.78;83.42;98754.22;442396;1251;141747;-65
2023/02/18 02:01:06;;;;;;;3.40;0.80;;;;;;;4.60;84.00;98771.64;444616;1248;143022;-67
2023/02/18 02:11:31;;;;;;;7.40;2.00;;;;;;;4.56;84.03;98774.27;444239;1252;141672;-66
2023/02/18 02:22:03;;;;;;;4.10;1.40;;;;;;;4.43;84.55;98772.33;442751;1251;141126;-67
2023/02/18 02:32:23;;;;;;;5.40;1.80;;;;;;;4.29;84.95;98776.52;443519;1248;141424;-66
2023/02/18 02:42:40;;;;;;;3.80;1.20;;;;;;;4.16;85.12;98776.16;434292;1253;140632;-66
2023/02/18 02:52:51;;;;;;;9.10;1.80;;;;;;;4.03;85.01;98778.85;437826;1253;141898;-66
2023/02/18 03:03:17;;;;;;;3.60;1.60;;;;;;;3.92;85.41;98804.33;440913;1248;142114;-68
2023/02/18 03:13:33;;;;;;;5.60;1.20;;;;;;;3.78;85.62;98815.70;446233;1248;144093;-67
2023/02/18 03:23:44;;;;;;;4.00;0.80;;;;;;;3.74;85.64;98828.03;437964;1248;142477;-67
2023/02/18 03:33:55;;;;;;;8.80;1.40;;;;;;;3.61;86.15;98834.18;437105;1250;141622;-67
2023/02/18 03:44:04;;;;;;;6.30;2.20;;;;;;;3.49;86.77;98834.74;438342;1248;141289;-67
2023/02/18 03:54:11;;;;;;;4.30;1.50;;;;;;;3.41;86.64;98844.63;435994;1252;142627;-67
2023/02/18 04:04:17;;;;;;;6.00;1.30;;;;;;;3.37;87.24;98860.23;443212;1248;143489;-67
2023/02/18 04:14:22;;;;;;;8.10;2.90;;;;;;;3.46;87.37;98883.34;436105;1251;140946;-67
2023/02/18 04:24:28;;;;;;;7.30;1.80;;;;;;;3.64;87.39;98893.09;436525;1251;146307;-66
2023/02/18 04:34:34;;;;;;;4.50;1.20;;;;;;;3.78;86.96;98896.04;436122;1251;141517;-66
2023/02/18 04:44:40;;;;;;;9.30;2.20;;;;;;;3.77;86.29;98892.86;439697;1251;146238;-67
2023/02/18 04:54:46;;;;;;;3.90;1.20;;;;;;;3.64;86.34;98899.16;440670;1251;144691;-66
2023/02/18 05:04:52;;;;;;;8.70;2.60;;;;;;;3.58;86.45;98899.07;435755;1248;141208;-66
2023/02/18 05:14:58;;;;;;;5.40;1.60;;;;;;;3.52;86.49;98903.00;438598;1248;142131;-67
2023/02/18 05:25:04;;;;;;;7.00;3.20;;;;;;;3.42;86.56;98907.40;434980;1251;141349;-66
2023/02/18 05:35:10;;;;;;;5.00;1.70;;;;;;;3.44;86.90;98920.45;436754;1251;194226;-67
2023/02/18 05:45:16;;;;;;;6.30;2.20;;;;;;;3.40;86.63;98916.86;439817;1248;141536;-66
2023/02/18 05:55:23;;;;;;;3.20;1.40;;;;;;;3.30;87.07;98929.72;435707;1249;141984;-67
2023/02/18 06:05:29;;;;;;;11.30;1.60;;;;;;;3.20;87.06;98935.55;442831;1248;140800;-67
2023/02/18 06:15:35;;;;;;;8.40;2.20;;;;;;;3.36;87.36;98946.77;439650;1249;141619;-67
2023/02/18 06:25:41;;;;;;;7.60;1.50;;;;;;;3.58;87.23;98965.38;436045;1249;208723;-67
2023/02/18 06:35:56;;;;;;;5.80;1.80;;;;;;;3.48;87.23;98960.46;439108;1249;144088;-67
2023/02/18 06:46:02;;;;;;;4.70;1.70;;;;;;;3.90;86.96;98960.43;441213;1248;142462;-67
2023/02/18 06:56:08;;;;;;;7.40;2.30;;;;;;;4.91;85.27;98957.15;435423;1249;141379;-68
2023/02/18 07:06:14;;;;;;;3.20;1.40;;;;;;;6.92;83.78;98970.10;441655;1249;141949;-68
2023/02/18 07:16:20;;;;;;;5.10;1.60;;;;;;;8.03;79.59;98976.48;441462;1249;142259;-67
2023/02/18 07:26:26;;;;;;;8.20;2.50;;;;;;;7.26;79.34;98981.17;434556;1252;142848;-66
2023/02/18 07:36:32;;;;;;;4.60;1.90;;;;;;;7.08;78.53;98987.77;437990;1249;142239;-66
2023/02/18 07:46:40;;;;;;;8.20;1.70;;;;;;;7.34;78.46;99003.98;434057;1250;142864;-68
2023/02/18 07:56:46;;;;;;;2.70;1.80;;;;;;;7.97;76.83;98991.86;434599;1250;143063;-67
2023/02/18 08:06:52;;;;;;;7.60;2.30;;;;;;;8.20;76.04;98996.36;434459;1250;144717;-68
2023/02/18 08:16:58;;;;;;;7.20;1.70;;;;;;;10.50;74.81;98994.96;440497;1248;141467;-67
2023/02/18 08:27:04;;;;;;;5.50;1.80;;;;;;;11.11;70.95;98994.35;438768;1248;140692;-67
2023/02/18 08:37:09;;;;;;;6.80;2.90;;;;;;;12.63;70.68;98988.92;436213;1249;141691;-66
2023/02/18 08:47:15;;;;;;;6.10;1.80;;;;;;;13.49;65.77;98993.06;434563;1249;140273;-67
2023/02/18 08:57:41;;;;;;;7.70;2.50;;;;;;;10.73;64.92;99005.35;437470;1249;141633;-67
2023/02/18 09:07:47;;;;;;;8.20;3.10;;;;;;;8.78;67.13;99016.17;443189;1249;140685;-65
2023/02/18 09:17:52;;;;;;;7.20;2.20;;;;;;;7.44;69.19;99016.81;438264;1249;140588;-67
2023/02/18 09:27:58;;;;;;;5.30;2.90;;;;;;;6.67;70.81;99015.74;442144;1249;144121;-67
2023/02/18 09:38:04;;;;;;;5.80;2.30;;;;;;;6.10;71.98;99026.86;439824;1248;140693;-66
2023/02/18 09:48:11;;;;;;;7.80;2.20;;;;;;;6.02;72.98;99025.56;438455;1249;141365;-67
2023/02/18 09:58:20;;;;;;;13.20;2.80;;;;;;;6.06;73.49;99024.84;434473;1249;142277;-67
2023/02/18 10:08:28;;;;;;;5.40;1.90;;;;;;;6.13;73.82;99013.68;451151;1249;141936;-66
2023/02/18 10:18:33;;;;;;;;;;;;;;;6.23;73.60;99015.71;450930;1249;142605;-67
2023/02/18 10:28:39;;;;;;;9.90;3.40;;;;;;;6.43;73.88;99018.96;437480;1249;127790;-66
2023/02/18 10:39:02;;;;;;;7.60;2.30;;;;;;;6.77;73.00;98995.16;451226;1249;141012;-67
2023/02/18 10:49:34;;;;;;;7.50;2.60;;;;;;;7.23;72.71;98975.59;450332;1249;141418;-67
2023/02/18 10:59:39;;;;;;;6.20;2.50;;;;;;;7.55;71.59;98972.98;451246;1249;141435;-66
2023/02/18 11:09:50;;;;;;;5.70;2.90;;;;;;;7.76;70.26;98960.89;438780;1252;142365;-68
2023/02/18 11:19:58;;;;;;;6.40;3.60;;;;;;;7.97;70.36;98937.83;442491;1249;142599;-66
2023/02/18 11:30:17;;;;;;;9.20;3.20;;;;;;;7.96;70.16;98928.46;451238;1248;142911;-66
2023/02/18 11:40:28;;;;;;;4.70;2.20;;;;;;;8.11;70.41;98917.89;443245;1249;141366;-66
2023/02/18 11:50:35;;;;;;;6.90;3.70;;;;;;;8.46;69.18;98897.33;447563;1249;141539;-66
2023/02/18 12:00:44;;;;;;;4.50;1.70;;;;;;;8.47;68.37;98872.17;439396;1249;140924;-66
2023/02/18 12:10:53;;;;;;;7.00;2.40;;;;;;;8.32;67.67;98854.65;450526;1249;142482;-66
2023/02/18 12:21:12;;;;;;;6.20;3.10;;;;;;;8.36;67.19;98850.40;441950;1250;141402;-66
2023/02/18 12:31:31;;;;;;;4.20;1.70;;;;;;;8.42;66.73;98839.52;433505;1250;140821;-66
2023/02/18 12:42:15;;;;;;;4.20;2.30;;;;;;;8.51;66.38;98808.23;442562;1249;140912;-66
2023/02/18 12:52:33;;;;;;;4.10;1.50;;;;;;;8.27;65.72;98786.64;446021;1249;192738;-68
2023/02/18 13:02:50;;;;;;;;;;;;;;;7.90;66.13;98772.67;434970;1248;141797;-67
2023/02/18 13:13:02;;;;;;;3.50;1.20;;;;;;;7.54;66.00;98750.79;450318;1249;128331;-68
2023/02/18 13:23:10;;;;;;;4.70;1.60;;;;;;;7.19;66.33;98727.98;450980;1249;141227;-71
2023/02/18 13:33:23;;;;;;;3.60;1.60;;;;;;;6.94;66.76;98726.23;437885;1249;141867;-67
2023/02/18 13:43:34;;;;;;;3.70;1.20;;;;;;;6.85;67.99;98727.47;442436;1249;141050;-67
2023/02/18 13:53:42;;;;;;;4.20;0.90;;;;;;;6.78;69.04;98721.81;449445;1249;142606;-66
2023/02/18 14:03:57;;;;;;;1.80;1.10;;;;;;;6.47;70.09;98726.63;441605;1249;145734;-67
2023/02/18 14:14:36;;;;;;;1.80;0.80;;;;;;;6.04;72.02;98709.52;449477;1249;141537;-67
2023/02/18 14:24:55;;;;;;;3.20;1.80;;;;;;;5.58;75.26;98693.11;449821;1249;140974;-66
2023/02/18 14:35:22;;;;;;;4.30;2.20;;;;;;;4.79;78.92;98679.25;447409;1251;142952;-67
2023/02/18 14:45:43;;;;;;;3.00;1.80;;;;;;;4.26;81.79;98679.45;448714;1249;142946;-67
2023/02/18 14:55:51;;;;;;;2.20;2.00;;;;;;;3.83;83.90;98672.12;450011;1249;182659;-67
2023/02/18 15:05:57;;;;;;;1.80;0.90;;;;;;;3.34;85.31;98678.36;447382;1250;141778;-66
2023/02/18 15:16:07;;;;;;;2.40;2.00;;;;;;;3.03;86.67;98674.86;432720;1250;144882;-65
2023/02/18 15:26:16;;;;;;;2.10;1.50;;;;;;;2.78;88.35;98663.19;450739;1249;142883;-67
2023/02/18 15:36:22;;;;;;;2.20;1.40;;;;;;;2.63;89.39;98669.74;450783;1250;141878;-65
2023/02/18 15:46:28;;;;;;;2.50;2.10;;;;;;;2.58;90.45;98663.77;449935;1250;142168;-67
2023/02/18 15:56:37;;;;;;;2.20;1.90;;;;;;;2.46;91.27;98653.27;451112;1249;143073;-68
2023/02/18 16:06:49;;;;;;;2.50;1.80;;;;;;;2.42;92.20;98650.88;447538;1249;142079;-68
2023/02/18 16:17:08;;;;;;;1.30;1.10;;;;;;;2.37;92.70;98628.11;435620;1252;141655;-67
2023/02/18 16:27:17;;;;;;;1.20;1.10;;;;;;;2.27;93.31;98618.56;443036;1250;141048;-67
2023/02/18 16:37:38;;;;;;;1.30;1.10;;;;;;;2.18;93.94;98602.02;444528;1249;141567;-68
2023/02/18 16:47:47;;;;;;;2.40;1.70;;;;;;;2.22;94.53;98593.02;448262;1249;142184;-68
2023/02/18 16:57:53;;;;;;;4.40;2.70;;;;;;;2.27;94.98;98588.98;440592;1249;143217;-68
2023/02/18 17:07:59;;;;;;;4.00;2.40;;;;;;;2.29;95.76;98587.69;441738;1250;142983;-67
2023/02/18 17:18:05;;;;;;;7.00;2.90;;;;;;;2.31;96.07;98583.49;450944;1250;142848;-67
2023/02/18 17:28:11;;;;;;;3.30;2.20;;;;;;;2.29;96.04;98583.58;450246;1249;142486;-67
2023/02/18 17:38:18;;;;;;;8.00;5.20;;;;;;;2.26;95.98;98581.27;451042;1250;142299;-67
2023/02/18 17:48:23;;;;;;;;;;;;;;;2.30;96.59;98571.59;450802;1252;141333;-67
2023/02/18 17:58:28;;;;;;;9.00;6.10;;;;;;;2.30;96.86;98578.15;443688;1249;128256;-67
2023/02/18 18:08:34;;;;;;;5.30;3.70;;;;;;;2.29;96.82;98594.10;450920;1249;142321;-66
2023/02/18 18:18:40;;;;;;;4.10;3.50;;;;;;;2.30;97.20;98606.50;442895;1252;142022;-66
2023/02/18 18:28:46;;;;;;;5.60;4.20;;;;;;;2.30;97.59;98624.95;440355;1249;141704;-66
2023/02/18 18:38:52;;;;;;;3.90;3.20;;;;;;;2.25;98.02;98631.58;443555;1249;143588;-67
2023/02/18 18:48:57;;;;;;;5.70;3.90;;;;;;;2.26;98.39;98640.17;441621;1250;142514;-67
2023/02/18 18:59:03;;;;;;;6.10;3.50;;;;;;;2.23;98.68;98633.55;450847;1250;142131;-66
2023/02/18 19:09:09;;;;;;;4.70;4.20;;;;;;;2.26;99.09;98666.26;450688;1249;142073;-66
2023/02/18 19:19:18;;;;;;;6.10;4.30;;;;;;;2.25;99.40;98682.02;442980;1252;141482;-68
2023/02/18 19:29:25;;;;;;;6.00;4.40;;;;;;;2.18;99.84;98686.48;447004;1250;142019;-69
2023/02/18 19:39:30;;;;;;;6.70;4.40;;;;;;;2.15;99.99;98700.75;449135;1252;142470;-68
2023/02/18 19:49:36;;;;;;;5.30;3.90;;;;;;;2.13;100.00;98709.98;450375;1249;142186;-69
2023/02/18 19:59:42;;;;;;;4.90;3.90;;;;;;;2.12;100.00;98739.20;451021;1250;141558;-69
2023/02/18 20:09:50;;;;;;;7.70;5.70;;;;;;;2.14;100.00;98754.98;450006;1249;143739;-68
2023/02/18 20:19:56;;;;;;;5.20;4.60;;;;;;;2.18;100.00;98759.84;450923;1251;141520;-68
2023/02/18 20:30:02;;;;;;;6.40;5.00;;;;;;;2.21;100.00;98783.36;450926;1249;142527;-68
2023/02/18 20:40:09;;;;;;;5.40;4.90;;;;;;;2.15;100.00;98810.55;449830;1251;142840;-69
2023/02/18 20:50:15;;;;;;;5.00;4.30;;;;;;;2.15;100.00;98833.73;445526;1250;142833;-68
2023/02/18 21:00:21;;;;;;;6.40;4.80;;;;;;;2.20;100.00;98858.55;434246;1253;142996;-70
2023/02/18 21:10:27;;;;;;;6.70;4.40;;;;;;;2.17;100.00;98872.48;446798;1250;142592;-68
2023/02/18 21:20:33;;;;;;;5.30;4.10;;;;;;;2.14;100.00;98874.86;446984;1251;141403;-69
2023/02/18 21:30:41;;;;;;;7.10;5.10;;;;;;;2.09;100.00;98884.02;439574;1251;143375;-68
2023/02/18 21:40:47;;;;;;;5.40;4.00;;;;;;;1.96;100.00;98903.20;448264;1251;142149;-68
2023/02/18 21:50:53;;;;;;;7.00;4.90;;;;;;;1.86;100.00;98924.47;438486;1250;143151;-68
2023/02/18 22:00:59;;;;;;;5.30;4.80;;;;;;;1.83;100.00;98924.58;439526;1251;143589;-68
2023/02/18 22:11:07;;;;;;;8.70;5.40;;;;;;;1.71;100.00;98936.92;450913;1249;143239;-69
2023/02/18 22:21:13;;;;;;;6.70;5.30;;;;;;;1.72;100.00;98952.60;450988;1251;142104;-68
2023/02/18 22:31:19;;;;;;;6.50;5.50;;;;;;;1.79;100.00;98968.89;447768;1250;143319;-69
2023/02/18 22:41:27;;;;;;;6.40;5.20;;;;;;;1.82;100.00;98994.84;451198;1249;142052;-69
2023/02/18 22:51:36;;;;;;;7.60;5.60;;;;;;;1.78;100.00;99002.94;441522;1251;142286;-68
2023/02/18 23:01:47;;;;;;;6.40;5.20;;;;;;;1.75;100.00;99005.97;450876;1248;151978;-68
2023/02/18 23:11:57;;;;;;;4.50;4.00;;;;;;;1.78;100.00;99009.98;450955;1249;182605;-69
2023/02/18 23:22:03;;;;;;;6.10;4.70;;;;;;;1.78;100.00;99020.36;445580;1248;142473;-69
2023/02/18 23:32:09;;;;;;;5.80;4.30;;;;;;;1.77;100.00;99029.54;438401;1251;141460;-70
2023/02/18 23:42:15;;;;;;;6.30;4.50;;;;;;;1.73;100.00;99031.95;442994;1249;141692;-69
2023/02/18 23:52:21;;;;;;;6.10;4.40;;;;;;;1.70;100.00;99030.50;437530;1251;142033;-68
